This is the latest recevied weather packets stored in our database for station/object DN9EM-3. If no packets are shown the sender has not sent any weather packets the latest 10 day(s).
| Time | Temp. | Humidity | Pressure | Rain* | Wind** | Luminosity | Snow |
|---|---|---|---|---|---|---|---|
| 1788459028 | 18.89° C | 81% | 1014.5 hPa | 0 mm | - | - | - |
| 1788458426 | 19.44° C | 80% | 1014.4 hPa | 0 mm | - | - | - |
| 1788457823 | 19.44° C | 80% | 1014.5 hPa | 0 mm | - | - | - |
| 1788457221 | 19.44° C | 80% | 1014.4 hPa | 0 mm | - | - | - |
| 1788456618 | 19.44° C | 80% | 1014.3 hPa | 0 mm | - | - | - |
| 1788456015 | 20° C | 79% | 1014.3 hPa | 0 mm | - | - | - |
| 1788455473 | 20° C | 79% | 1014.2 hPa | 0 mm | - | - | - |
| 1788454870 | 20° C | 79% | 1014.1 hPa | 0 mm | - | - | - |
| 1788454268 | 20° C | 78% | 1014.1 hPa | 0 mm | - | - | - |
| 1788453665 | 20.56° C | 77% | 1014.2 hPa | 0 mm | - | - | - |
| 1788453063 | 20.56° C | 77% | 1014 hPa | 0 mm | - | - | - |
| 1788452460 | 20.56° C | 77% | 1014 hPa | 0 mm | - | - | - |
| 1788451857 | 20.56° C | 77% | 1013.9 hPa | 0 mm | - | - | - |
| 1788451255 | 20.56° C | 77% | 1013.9 hPa | 0 mm | - | - | - |
| 1788450652 | 21.11° C | 76% | 1013.8 hPa | 0 mm | - | - | - |
| 1788450050 | 21.67° C | 76% | 1013.8 hPa | 0 mm | - | - | - |
| 1788449447 | 21.11° C | 78% | 1013.7 hPa | 0 mm | - | - | - |
| 1788448845 | 21.11° C | 76% | 1013.7 hPa | 0 mm | - | - | - |
| 1788448242 | 21.67° C | 75% | 1013.5 hPa | 0 mm | - | - | - |
| 1788447640 | 21.67° C | 75% | 1013.6 hPa | 0 mm | - | - | - |
| 1788447037 | 21.67° C | 75% | 1013.6 hPa | 0 mm | - | - | - |
| 1788446434 | 21.11° C | 79% | 1013.4 hPa | 0 mm | - | - | - |
| 1788445832 | 21.67° C | 79% | 1013.5 hPa | 0 mm | - | - | - |
| 1788445229 | 21.11° C | 80% | 1013.5 hPa | 0 mm | - | - | - |
| 1788444627 | 20.56° C | 83% | 1013.4 hPa | 0 mm | - | - | - |
* Rain latest hour (hover to see other rain measurements)
** Current wind speed in m/s (hover to see current wind gust speed)